Latest Coastal Weather Observations for St Lawrence

IDQ60701

Issued at 12:55 am EST Thursday 28 August 2014 (issued every 10 minutes, with the page automatically refreshed every 10 minutes)

About coastal observations | Map of coastal stations | Coastal observations for QLD | Marine services | Other Formats
Station Details ID: 033210 Name: ST LAWRENCE Lat: -22.35 Lon: 149.52 Height: 9.19 m
Data from the previous 72 hours. | See also: Recent months at St Lawrence
Date/Time
EST
Temp

°C
Wind Pressure Rain
since 9am
mm
Weather Cloud Vis
km
Sea
Height
m
Swell
Dir
 
Speed
knots
Gust
knots
hPa Trend Height
m
Period
s
Dir
28/12:30am 11.4 SW 4 5 1018.0 - 0.0 - - - - - - -
28/12:00am 11.1 SW 3 4 1018.0 - 0.0 - - - - - - -
 
Date/Time
EST
Temp

°C
Wind Pressure Rain
since 9am
mm
Weather Cloud Vis
km
Sea
Height
m
Swell
Dir
 
Speed
knots
Gust
knots
hPa Trend Height
m
Period
s
Dir
27/11:30pm 10.6 SSW 1 3 1017.9 - 0.0 - - - - - - -
27/11:00pm 11.8 SW 3 4 1017.9 - 0.0 - - - - - - -
27/10:30pm 13.8 SW 3 4 1017.7 - 0.0 - - - - - - -
27/10:00pm 14.3 SW 4 5 1017.5 - 0.0 - - - - - - -
27/09:30pm 14.5 WSW 1 3 1017.3 - 0.0 - - - - - - -
27/09:00pm 15.0 WSW 2 4 1017.1 - 0.0 - - - - - - -
27/08:30pm 15.4 WSW 3 5 1016.9 - 0.0 - - - - - - -
27/08:00pm 15.6 WSW 4 5 1016.6 - 0.0 - - - - - - -
27/07:30pm 16.0 S 3 5 1016.2 - 0.0 - - - - - - -
27/07:00pm 18.9 S 4 5 1015.6 - 0.0 - - - - - - -
27/06:30pm 19.8 SSW 4 5 1015.2 - 0.0 - - - - - - -
27/06:00pm 21.8 SW 5 7 1014.9 - 0.0 - - - - - - -
27/05:30pm 23.5 SW 6 11 1014.4 - 0.0 - - - - - - -
27/05:00pm 24.7 SW 7 11 1014.1 - 0.0 - - - - - - -
27/04:30pm 25.3 WSW 6 11 1013.8 - 0.0 - - - - - - -
27/04:00pm 25.4 WSW 8 13 1013.7 - 0.0 - - - - - - -
27/03:30pm 25.6 SW 9 12 1013.7 - 0.0 - - - - - - -
27/03:00pm 25.7 W 11 16 1013.7 - 0.0 - - - - - - -
27/02:30pm 26.0 W 10 15 1013.9 - 0.0 - - - - - - -
27/02:00pm 25.6 SW 7 12 1014.2 - 0.0 - - - - - - -
27/01:30pm 25.3 W 11 14 1014.6 - 0.0 - - - - - - -
27/01:00pm 25.7 WSW 7 12 1015.0 - 0.0 - - - - - - -
27/12:30pm 25.4 SSW 7 15 1015.3 - 0.0 - - - - - - -
27/12:00pm 24.9 W 9 14 1015.7 - 0.0 - - - - - - -
27/11:30am 24.2 S 8 12 1016.4 - 0.0 - - - - - - -
27/11:00am 23.5 SW 7 12 1016.9 - 0.0 - - - - - - -
27/10:30am 22.3 SSE 8 13 1017.4 - 0.0 - - - - - - -
27/10:00am 21.9 S 9 15 1017.7 - 0.0 - - - - - - -
27/09:30am 20.7 S 8 13 1017.8 - 0.0 - - - - - - -
27/09:00am 18.9 S 9 14 1017.9 - 0.0 - - - - - - -
27/08:30am 17.5 S 7 10 1017.8 - 0.0 - - - - - - -
27/08:00am 15.5 S 5 8 1017.8 - 0.0 - - - - - - -
27/07:30am 11.9 CALM 0 0 1017.4 - 0.0 - - - - - - -
27/07:00am 9.2 CALM 0 0 1017.0 - 0.0 - - - - - - -
27/06:30am 9.0 W 3 5 1016.6 - 0.0 - - - - - - -
27/06:00am 9.7 S 1 3 1016.4 - 0.0 - - - - - - -
27/05:30am 10.0 SW 1 4 1016.1 - 0.0 - - - - - - -
27/05:00am 10.1 SSW 3 4 1015.8 - 0.0 - - - - - - -
27/04:30am 10.9 S 4 6 1015.7 - 0.0 - - - - - - -
27/04:00am 11.1 SSE 6 9 1015.4 - 0.0 - - - - - - -
27/03:30am 10.3 SSW 2 7 1015.1 - 0.0 - - - - - - -
27/03:00am 9.9 CALM 0 0 1014.9 - 0.0 - - - - - - -
27/02:30am 10.5 CALM 0 0 1015.2 - 0.0 - - - - - - -
27/02:00am 11.0 CALM 0 0 1015.5 - 0.0 - - - - - - -
27/01:30am 11.4 CALM 0 0 1016.0 - 0.0 - - - - - - -
27/01:00am 12.1 CALM 0 2 1016.3 - 0.0 - - - - - - -
27/12:30am 12.7 WSW 4 6 1016.3 - 0.0 - - - - - - -
27/12:00am 12.8 WSW 4 5 1016.5 - 0.0 - - - - - - -
 
Date/Time
EST
Temp

°C
Wind Pressure Rain
since 9am
mm
Weather Cloud Vis
km
Sea
Height
m
Swell
Dir
 
Speed
knots
Gust
knots
hPa Trend Height
m
Period
s
Dir
26/11:30pm 13.0 WSW 4 5 1016.7 - 0.0 - - - - - - -
26/11:00pm 13.6 CALM 0 2 1016.6 - 0.0 - - - - - - -
26/10:30pm 14.9 CALM 0 0 1016.7 - 0.0 - - - - - - -
26/10:00pm 16.6 N 4 6 1016.8 - 0.0 - - - - - - -
26/09:30pm 18.1 NE 6 8 1016.8 - 0.0 - - - - - - -
26/09:00pm 18.1 NE 6 9 1016.7 - 0.0 - - - - - - -
26/08:30pm 18.3 NE 7 9 1016.4 - 0.0 - - - - - - -
26/08:00pm 18.5 ENE 5 7 1016.1 - 0.0 - - - - - - -
26/07:30pm 18.9 NE 7 9 1015.8 - 0.0 - - - - - - -
26/07:00pm 18.9 NE 6 9 1015.2 - 0.0 - - - - - - -
26/06:30pm 19.4 ENE 5 7 1015.0 - 0.0 - - - - - - -
26/06:00pm 20.5 NE 5 6 1014.6 - 0.0 - - - - - - -
26/05:30pm 22.4 NE 6 8 1014.3 - 0.0 - - - - - - -
26/05:00pm 23.4 NE 7 9 1013.9 - 0.0 - - - - - - -
26/04:30pm 23.7 NE 9 12 1013.9 - 0.0 - - - - - - -
26/04:00pm 24.6 NNE 9 11 1013.9 - 0.0 - - - - - - -
26/03:30pm 25.1 NNE 9 12 1013.8 - 0.0 - - - - - - -
26/03:00pm 25.9 NE 8 11 1013.9 - 0.0 - - - - - - -
26/02:30pm 25.2 NE 9 14 1014.2 - 0.0 - - - - - - -
26/02:00pm 25.1 NE 11 13 1014.4 - 0.0 - - - - - - -
26/01:30pm 25.8 ENE 6 9 1014.8 - 0.0 - - - - - - -
26/01:00pm 26.3 N 6 11 1015.2 - 0.0 - - - - - - -
26/12:30pm 25.3 E 6 10 1015.9 - 0.0 - - - - - - -
26/12:00pm 24.7 SSE 5 12 1016.6 - 0.0 - - - - - - -
26/11:30am 24.1 ESE 6 12 1017.4 - 0.0 - - - - - - -
26/11:00am 23.6 SSE 6 10 1018.0 - 0.0 - - - - - - -
26/10:30am 22.7 S 5 10 1018.4 - 0.0 - - - - - - -
26/10:00am 22.2 W 2 5 1018.7 - 0.0 - - - - - - -
26/09:30am 20.7 SW 4 6 1018.8 - 0.0 - - - - - - -
26/09:00am 19.1 SSW 4 6 1018.9 - 0.0 - - - - - - -
26/08:30am 17.1 CALM 0 1 1018.8 - 0.0 - - - - - - -
26/08:00am 14.6 W 3 4 1018.7 - 0.0 - - - - - - -
26/07:30am 12.6 WSW 4 5 1018.5 - 0.0 - - - - - - -
26/07:00am 10.7 SW 3 4 1018.2 - 0.0 - - - - - - -
26/06:30am 8.6 CALM 0 0 1017.8 - 0.0 - - - - - - -
26/06:00am 9.6 CALM 0 3 1017.4 - 0.0 - - - - - - -
26/05:30am 9.8 SW 3 3 1017.3 - 0.0 - - - - - - -
26/05:00am 10.0 W 3 3 1017.1 - 0.0 - - - - - - -
26/04:30am 9.8 SW 3 4 1017.1 - 0.0 - - - - - - -
26/04:00am 11.2 S 5 6 1017.1 - 0.0 - - - - - - -
26/03:30am 9.8 S 4 5 1017.0 - 0.0 - - - - - - -
26/03:00am 10.6 SSW 3 4 1017.2 - 0.0 - - - - - - -
26/02:30am 11.5 SSW 3 4 1017.4 - 0.0 - - - - - - -
26/02:00am 11.9 SSW 3 4 1017.6 - 0.0 - - - - - - -
26/01:30am 11.5 SW 2 3 1017.9 - 0.0 - - - - - - -
26/01:00am 11.6 SW 3 4 1017.9 - 0.0 - - - - - - -
26/12:30am 11.9 SW 1 3 1018.1 - 0.0 - - - - - - -
26/12:00am 12.8 WSW 2 3 1018.4 - 0.0 - - - - - - -
 
Date/Time
EST
Temp

°C
Wind Pressure Rain
since 9am
mm
Weather Cloud Vis
km
Sea
Height
m
Swell
Dir
 
Speed
knots
Gust
knots
hPa Trend Height
m
Period
s
Dir
25/11:30pm 13.0 WSW 2 4 1018.3 - 0.0 - - - - - - -
25/11:00pm 13.4 WSW 4 6 1018.5 - 0.0 - - - - - - -
25/10:30pm 13.0 SW 1 4 1018.6 - 0.0 - - - - - - -
25/10:00pm 14.0 SSW 3 4 1018.7 - 0.0 - - - - - - -
25/09:30pm 15.2 S 1 3 1018.8 - 0.0 - - - - - - -
25/09:00pm 15.5 NE 1 4 1018.7 - 0.0 - - - - - - -
25/08:30pm 16.3 ENE 3 4 1018.5 - 0.0 - - - - - - -
25/08:00pm 16.4 NE 2 4 1018.4 - 0.0 - - - - - - -
25/07:30pm 18.2 NE 3 5 1018.3 - 0.0 - - - - - - -
25/07:00pm 19.0 NE 4 5 1017.9 - 0.0 - - - - - - -
25/06:30pm 19.6 ENE 5 7 1017.5 - 0.0 - - - - - - -
25/06:00pm 20.8 E 4 6 1016.9 - 0.0 - - - - - - -
25/05:30pm 24.9 S 6 9 1016.5 - 0.0 - - - - - - -
25/05:00pm 25.9 SSE 6 11 1016.2 - 0.0 - - - - - - -
25/04:30pm 26.3 SSE 8 12 1016.0 - 0.0 - - - - - - -
25/04:00pm 26.7 SSE 8 12 1016.0 - 0.0 - - - - - - -
25/03:30pm 25.7 S 6 10 1016.1 - 0.0 - - - - - - -
25/03:00pm 26.8 S 6 11 1016.2 - 0.0 - - - - - - -
25/02:30pm 25.9 SSE 7 12 1016.4 - 0.0 - - - - - - -
25/02:00pm 26.7 S 8 12 1016.9 - 0.0 - - - - - - -
25/01:30pm 27.0 S 7 11 1017.1 - 0.0 - - - - - - -
25/01:00pm 25.8 SSE 9 15 1017.6 - 0.0 - - - - - - -
25/12:30pm 25.2 S 8 13 1018.1 - 0.0 - - - - - - -
25/12:00pm 25.1 S 9 14 1018.6 - 0.0 - - - - - - -
25/11:30am 25.0 S 10 16 1019.1 - 0.0 - - - - - - -
25/11:00am 24.4 SSE 11 17 1019.6 - 0.0 - - - - - - -
25/10:30am 24.1 S 11 19 1020.2 - 0.0 - - - - - - -
25/10:00am 22.7 S 10 15 1020.7 - 0.0 - - - - - - -
25/09:30am 21.6 S 11 16 1021.1 - 0.0 - - - - - - -
25/09:00am 21.0 SSE 9 14 1021.2 - 0.0 - - - - - - -
25/08:30am 19.5 S 5 7 1021.2 - 0.0 - - - - - - -
25/08:00am 17.3 SW 3 4 1021.0 - 0.0 - - - - - - -
25/07:30am 15.0 CALM 0 0 1020.7 - 0.0 - - - - - - -
25/07:00am 13.3 SW 1 3 1020.4 - 0.0 - - - - - - -
25/06:30am 12.6 SSW 4 5 1020.2 - 0.0 - - - - - - -
25/06:00am 12.0 CALM 0 0 1019.9 - 0.0 - - - - - - -
25/05:30am 12.0 CALM 0 0 1019.5 - 0.0 - - - - - - -
25/05:00am 12.6 SW 2 4 1019.3 - 0.0 - - - - - - -
25/04:30am 12.9 WSW 4 5 1019.0 - 0.0 - - - - - - -
25/04:00am 12.4 CALM 0 0 1019.1 - 0.0 - - - - - - -
25/03:30am 11.9 CALM 0 0 1019.2 - 0.0 - - - - - - -
25/03:00am 13.6 SW 3 4 1019.4 - 0.0 - - - - - - -
25/02:30am 13.2 W 1 4 1019.4 - 0.0 - - - - - - -
25/02:00am 13.5 S 2 3 1019.4 - 0.0 - - - - - - -
25/01:30am 14.2 SSW 3 4 1019.5 - 0.0 - - - - - - -
25/01:00am 14.9 SSW 4 5 1019.8 - 0.0 - - - - - - -

Other Formats:

Comma delimited format used in spreadsheet applications
http://www.bom.gov.au/fwo/IDQ60701/IDQ60701.95369.axf

JavaScript Object Notation format (JSON) in row-major order
http://www.bom.gov.au/fwo/IDQ60701/IDQ60701.95369.json